createdAt,value
2023-04-25T00:23:48.988Z,99280.47
2023-04-25T00:26:51.882Z,99272.16
2023-04-25T00:29:54.319Z,99279.47
2023-04-25T00:35:59.625Z,99246.94
2023-04-25T00:39:01.976Z,99268.56
2023-04-25T00:42:04.764Z,99226.41
2023-04-25T00:45:08.686Z,99233.63
2023-04-25T00:48:11.357Z,99261.72
2023-04-25T00:51:17.690Z,99259.13
2023-04-25T00:54:20.394Z,99239.84
2023-04-25T00:57:23.141Z,99206.13
2023-04-25T01:00:25.582Z,99250.59
2023-04-25T01:03:29.856Z,99251.84
2023-04-25T01:06:33.017Z,99224.13
2023-04-25T01:09:36.614Z,99237.81
2023-04-25T01:12:39.085Z,99240.47
2023-04-25T01:15:41.569Z,99239.47
2023-04-25T01:18:45.552Z,99217.69
2023-04-25T01:21:48.179Z,99247.56
2023-04-25T01:24:51.675Z,99240.59
2023-04-25T01:27:54.331Z,99238.53
2023-04-25T01:30:58.314Z,99241.19
2023-04-25T01:34:01.846Z,99225.97
2023-04-25T01:37:05.169Z,99227.66
2023-04-25T01:40:09.284Z,99214.22
2023-04-25T01:43:13.128Z,99225.69
2023-04-25T01:46:16.339Z,99229.41
2023-04-25T01:49:19.958Z,99199.56
2023-04-25T01:52:22.752Z,99226.97
2023-04-25T01:55:25.604Z,99230.19
2023-04-25T01:58:35.213Z,99228.72
2023-04-25T02:02:04.624Z,99204.16
2023-04-25T02:05:08.788Z,99224.97
2023-04-25T02:08:14.477Z,99208.31
2023-04-25T02:11:16.928Z,99200.91
2023-04-25T02:14:26.589Z,99200.94
2023-04-25T02:17:48.153Z,99208.00
2023-04-25T02:20:50.716Z,99182.50
2023-04-25T02:23:53.711Z,99211.22
2023-04-25T02:26:59.211Z,99198.53
2023-04-25T02:30:02.245Z,99196.78
2023-04-25T02:33:04.750Z,99184.06
2023-04-25T02:36:07.801Z,99180.22
2023-04-25T02:39:11.326Z,99188.25
2023-04-25T02:42:13.833Z,99182.41
2023-04-25T02:45:16.338Z,99196.56
2023-04-25T02:48:18.807Z,99183.66
2023-04-25T02:51:21.357Z,99180.81
2023-04-25T02:54:24.077Z,99201.53
2023-04-25T02:57:26.576Z,99190.28
2023-04-25T03:00:29.598Z,99199.34
2023-04-25T03:03:32.453Z,99192.47
2023-04-25T03:06:34.906Z,99163.53
2023-04-25T03:09:37.545Z,99184.59
2023-04-25T03:12:40.168Z,99182.28
2023-04-25T03:15:42.588Z,99172.72
2023-04-25T03:18:45.034Z,99178.34
2023-04-25T03:21:47.826Z,99191.34
2023-04-25T03:24:51.127Z,99161.28
2023-04-25T03:27:53.499Z,99176.88
2023-04-25T03:30:56.089Z,99156.91
2023-04-25T03:33:58.681Z,99155.44
2023-04-25T03:37:01.627Z,99164.81
2023-04-25T03:40:07.688Z,99176.16
2023-04-25T03:43:40.462Z,99177.31
2023-04-25T03:46:47.062Z,99156.03
2023-04-25T03:49:52.764Z,99173.09
2023-04-25T03:52:57.905Z,99169.47
2023-04-25T03:56:03.356Z,99127.22
2023-04-25T03:59:09.015Z,99150.59
2023-04-25T04:02:11.907Z,99163.47
2023-04-25T04:05:15.628Z,99179.72
2023-04-25T04:08:24.711Z,99173.56
2023-04-25T04:11:27.352Z,99156.28
2023-04-25T04:14:29.761Z,99177.81
2023-04-25T04:17:32.779Z,99152.38
2023-04-25T04:20:35.472Z,99171.47
2023-04-25T04:23:39.646Z,99159.59
2023-04-25T04:26:46.052Z,99172.81
2023-04-25T04:30:06.026Z,99158.47
2023-04-25T04:33:16.241Z,99146.50
2023-04-25T04:36:30.797Z,99133.66
2023-04-25T04:39:35.091Z,99169.94
2023-04-25T04:42:51.422Z,99154.94
2023-04-25T04:46:04.521Z,99178.28
2023-04-25T04:49:27.416Z,99178.28
2023-04-25T04:52:52.674Z,99159.13
2023-04-25T04:56:13.462Z,99148.03
2023-04-25T04:59:27.034Z,99163.41
2023-04-25T05:03:02.225Z,99155.38
2023-04-25T05:06:32.204Z,99171.59
2023-04-25T05:10:14.184Z,99151.25
2023-04-25T05:13:39.687Z,99166.75
2023-04-25T05:16:55.223Z,99168.63
2023-04-25T05:20:20.717Z,99154.69
2023-04-25T05:23:41.502Z,99170.16
2023-04-25T05:27:09.851Z,99152.38
2023-04-25T05:30:36.428Z,99169.94
2023-04-25T05:34:05.194Z,99139.88
2023-04-25T05:37:25.564Z,99150.16
2023-04-25T05:40:41.847Z,99163.34
2023-04-25T05:43:54.116Z,99164.72
2023-04-25T05:47:06.037Z,99152.53
2023-04-25T05:50:27.631Z,99172.34
2023-04-25T05:53:49.235Z,99119.03
2023-04-25T05:56:51.880Z,99141.00
2023-04-25T05:59:55.116Z,99158.84
2023-04-25T06:02:59.170Z,99144.03
2023-04-25T06:06:01.890Z,99158.13
2023-04-25T06:09:04.497Z,99155.22
2023-04-25T06:12:08.204Z,99140.16
2023-04-25T06:15:24.503Z,99127.47
2023-04-25T06:18:30.881Z,99157.56
2023-04-25T06:21:33.402Z,99160.59
2023-04-25T06:24:36.434Z,99152.84
2023-04-25T06:27:40.328Z,99141.53
2023-04-25T06:30:44.070Z,99167.28
2023-04-25T06:33:50.322Z,99163.56
2023-04-25T06:36:52.979Z,99169.28
2023-04-25T06:39:56.867Z,99147.41
2023-04-25T06:42:59.352Z,99154.78
2023-04-25T06:46:13.436Z,99156.50
2023-04-25T06:49:20.354Z,99152.41
2023-04-25T06:52:22.992Z,99155.34
2023-04-25T06:55:28.393Z,99160.41
2023-04-25T06:58:44.251Z,99180.06
2023-04-25T07:01:51.748Z,99182.78
2023-04-25T07:05:00.841Z,99181.88
2023-04-25T07:08:04.079Z,99183.78
2023-04-25T07:11:06.681Z,99147.00
2023-04-25T07:14:09.146Z,99188.00
2023-04-25T07:17:11.766Z,99191.75
2023-04-25T07:20:15.589Z,99190.72
2023-04-25T07:23:18.255Z,99141.34
2023-04-25T07:26:21.013Z,99150.44
2023-04-25T07:29:49.345Z,99147.63
2023-04-25T07:32:51.841Z,99164.91
2023-04-25T07:35:54.421Z,99133.47
2023-04-25T07:38:56.878Z,99128.81
2023-04-25T07:41:59.620Z,99157.00
2023-04-25T07:45:05.666Z,99152.22
2023-04-25T07:48:08.963Z,99153.34
2023-04-25T07:51:14.229Z,99158.47
2023-04-25T07:54:17.013Z,99150.34
2023-04-25T07:57:25.365Z,99119.59
2023-04-25T08:00:29.979Z,99120.69
2023-04-25T08:03:52.502Z,99140.88
2023-04-25T08:07:03.531Z,99146.16
2023-04-25T08:10:12.217Z,99145.13
2023-04-25T08:13:15.459Z,99126.41
2023-04-25T08:16:17.925Z,99145.66
2023-04-25T08:19:20.602Z,99163.22
2023-04-25T08:22:23.823Z,99137.44
2023-04-25T08:25:31.347Z,99164.16
2023-04-25T08:28:34.097Z,99173.50
2023-04-25T08:31:38.317Z,99164.47
2023-04-25T08:34:43.240Z,99163.31
2023-04-25T08:37:45.796Z,99155.19
2023-04-25T08:40:54.473Z,99180.47
2023-04-25T08:44:01.285Z,99152.44
2023-04-25T08:47:05.324Z,99192.41
2023-04-25T08:50:11.246Z,99189.38
2023-04-25T08:53:19.847Z,99161.88
2023-04-25T08:56:24.301Z,99167.19
2023-04-25T08:59:27.159Z,99198.38
2023-04-25T09:02:30.781Z,99197.97
2023-04-25T09:05:34.432Z,99176.97
2023-04-25T09:08:38.560Z,99179.50
2023-04-25T09:11:44.171Z,99172.16
2023-04-25T09:15:10.860Z,99201.41
2023-04-25T09:18:33.108Z,99167.00
2023-04-25T09:21:36.617Z,99194.50
2023-04-25T09:24:41.685Z,99193.22
2023-04-25T09:27:54.419Z,99208.31
2023-04-25T09:31:05.455Z,99196.72
2023-04-25T09:34:19.089Z,99228.69
2023-04-25T09:37:31.004Z,99219.63
2023-04-25T09:41:05.775Z,99228.63
2023-04-25T09:44:15.237Z,99235.47
2023-04-25T09:47:19.361Z,99239.31
2023-04-25T09:50:25.614Z,99222.22
2023-04-25T09:53:47.734Z,99238.06
2023-04-25T09:57:14.560Z,99236.13
2023-04-25T10:00:18.440Z,99244.09
2023-04-25T10:03:23.948Z,99252.81
2023-04-25T10:06:50.550Z,99249.13
2023-04-25T10:31:48.547Z,99230.00
2023-04-25T10:34:51.410Z,99249.75
2023-04-25T10:37:59.702Z,99260.59
2023-04-25T10:41:09.973Z,99254.25
2023-04-25T10:44:12.511Z,99254.13
2023-04-25T10:47:44.213Z,99249.84
2023-04-25T10:50:46.665Z,99252.56
2023-04-25T10:53:58.439Z,99246.69
2023-04-25T10:57:01.287Z,99259.56
2023-04-25T11:00:18.025Z,99256.84
2023-04-25T11:03:23.331Z,99193.56
2023-04-25T11:07:05.534Z,99259.53
2023-04-25T11:10:09.300Z,99211.97
2023-04-25T11:13:13.181Z,99247.78
2023-04-25T11:16:26.806Z,99197.44
2023-04-25T11:19:30.520Z,99254.41
2023-04-25T11:22:32.961Z,99244.91
2023-04-25T11:25:37.800Z,99217.97
2023-04-25T11:28:41.329Z,99248.66
2023-04-25T11:31:46.868Z,99231.81
2023-04-25T11:34:49.613Z,99227.78
2023-04-25T11:37:52.288Z,99244.44
2023-04-25T11:40:55.192Z,99257.88
2023-04-25T11:43:57.891Z,99227.44
2023-04-25T11:47:00.526Z,99258.50
2023-04-25T11:50:04.761Z,99246.88
2023-04-25T11:53:08.777Z,99251.53
2023-04-25T11:56:15.139Z,99255.88
2023-04-25T11:59:17.805Z,99263.47
2023-04-25T12:02:27.818Z,99240.66
2023-04-25T12:05:33.984Z,99243.25
2023-04-25T12:08:37.167Z,99263.72
2023-04-25T12:11:46.966Z,99236.41
2023-04-25T12:14:50.070Z,99234.91
2023-04-25T12:17:55.008Z,99276.69
2023-04-25T12:20:57.671Z,99239.81
2023-04-25T12:24:20.329Z,99277.72
2023-04-25T12:27:22.751Z,99242.16
2023-04-25T12:30:25.911Z,99262.00
2023-04-25T12:33:33.459Z,99246.06
2023-04-25T12:36:36.191Z,99273.94
2023-04-25T12:39:38.819Z,99271.00
2023-04-25T12:42:41.232Z,99274.09
2023-04-25T12:45:43.663Z,99251.66
2023-04-25T12:48:46.443Z,99269.81
2023-04-25T12:51:49.082Z,99266.47
2023-04-25T12:54:51.498Z,99267.78
2023-04-25T12:57:53.984Z,99268.72
2023-04-25T13:00:56.505Z,99282.69
2023-04-25T13:03:59.014Z,99273.56
2023-04-25T13:07:01.612Z,99264.06
2023-04-25T13:10:04.265Z,99287.88
2023-04-25T13:13:06.704Z,99288.38
2023-04-25T13:16:09.809Z,99267.59
2023-04-25T13:19:12.669Z,99299.00
2023-04-25T13:22:16.453Z,99276.53
2023-04-25T13:25:18.892Z,99228.72
2023-04-25T13:28:21.363Z,99296.44
2023-04-25T13:31:23.864Z,99295.19
2023-04-25T13:34:26.344Z,99299.06
2023-04-25T13:37:28.973Z,99281.16
2023-04-25T13:40:31.601Z,99295.25
2023-04-25T13:43:34.932Z,99288.03
2023-04-25T13:49:44.086Z,99282.72
2023-04-25T13:52:46.680Z,99311.91
2023-04-25T13:55:49.151Z,99304.91
2023-04-25T13:58:52.871Z,99269.22
2023-04-25T14:01:56.034Z,99279.41
2023-04-25T14:04:58.725Z,99276.72
2023-04-25T14:08:02.372Z,99303.56
2023-04-25T14:11:04.976Z,99284.66
2023-04-25T14:14:07.608Z,99312.88
2023-04-25T14:17:10.358Z,99307.16
2023-04-25T14:20:12.759Z,99311.38
2023-04-25T14:23:15.456Z,99316.25
2023-04-25T14:26:17.848Z,99310.53
2023-04-25T14:29:20.295Z,99315.91
2023-04-25T14:32:22.928Z,99310.72
2023-04-25T14:35:25.510Z,99317.78
2023-04-25T14:38:28.073Z,99299.38
2023-04-25T14:41:30.473Z,99289.38
2023-04-25T14:44:32.997Z,99322.03
2023-04-25T14:47:38.766Z,99294.00
2023-04-25T14:50:41.333Z,99321.22
2023-04-25T14:53:43.770Z,99327.03
2023-04-25T14:56:46.161Z,99300.91
2023-04-25T14:59:48.748Z,99316.50
2023-04-25T15:02:51.898Z,99313.03
2023-04-25T15:05:57.933Z,99320.28
2023-04-25T15:09:00.914Z,99333.81
2023-04-25T15:12:03.706Z,99320.50
2023-04-25T15:15:07.401Z,99322.94
2023-04-25T15:18:10.025Z,99329.06
2023-04-25T15:21:12.828Z,99323.88
2023-04-25T15:24:16.443Z,99327.78
2023-04-25T15:27:19.152Z,99353.00
2023-04-25T15:30:26.201Z,99328.16
2023-04-25T15:33:29.008Z,99348.34
2023-04-25T15:36:32.548Z,99317.22
2023-04-25T15:39:35.035Z,99346.88
2023-04-25T15:42:55.113Z,99353.84
2023-04-25T15:45:57.541Z,99328.06
2023-04-25T15:48:59.944Z,99326.66
2023-04-25T15:52:02.575Z,99345.38
2023-04-25T15:55:06.487Z,99318.75
2023-04-25T15:58:10.742Z,99325.19
2023-04-25T16:01:15.796Z,99345.78
2023-04-25T16:04:18.559Z,99300.81
2023-04-25T16:07:21.037Z,99354.72
2023-04-25T16:10:25.358Z,99345.19
2023-04-25T16:13:27.808Z,99364.16
2023-04-25T16:16:30.473Z,99369.16
2023-04-25T16:19:32.879Z,99339.72
2023-04-25T16:22:39.161Z,99329.63
2023-04-25T16:25:43.041Z,99374.19
2023-04-25T16:28:45.541Z,99321.41
2023-04-25T16:31:48.687Z,99369.97
2023-04-25T16:34:51.388Z,99331.00
2023-04-25T16:37:53.864Z,99360.47
2023-04-25T16:40:59.777Z,99345.03
2023-04-25T16:44:02.158Z,99364.59
2023-04-25T16:47:06.160Z,99346.78
2023-04-25T16:50:09.200Z,99369.88
2023-04-25T16:53:11.974Z,99351.81
2023-04-25T16:56:14.454Z,99366.47
2023-04-25T16:59:17.188Z,99369.63
2023-04-25T17:02:19.757Z,99350.88
2023-04-25T17:05:22.517Z,99351.09
2023-04-25T17:08:25.034Z,99366.56
2023-04-25T17:11:28.831Z,99382.72
2023-04-25T17:14:33.269Z,99365.69
2023-04-25T17:17:35.782Z,99365.91
2023-04-25T17:20:39.072Z,99395.16
2023-04-25T17:23:45.547Z,99373.97
2023-04-25T17:26:49.032Z,99404.19
2023-04-25T17:29:51.933Z,99376.13
2023-04-25T17:32:54.387Z,99406.13
2023-04-25T17:35:56.810Z,99408.28
2023-04-25T17:38:59.226Z,99416.47
2023-04-25T17:42:02.410Z,99417.28
2023-04-25T17:45:06.069Z,99396.66
2023-04-25T17:48:08.711Z,99432.66
2023-04-25T17:51:11.500Z,99442.72
2023-04-25T17:54:14.717Z,99442.72
2023-04-25T17:57:17.985Z,99399.06
2023-04-25T18:00:20.491Z,99448.41
2023-04-25T18:03:23.296Z,99424.00
2023-04-25T18:06:28.309Z,99431.59
2023-04-25T18:09:32.350Z,99463.13
2023-04-25T18:12:35.053Z,99460.63
2023-04-25T18:15:37.457Z,99462.13
2023-04-25T18:18:43.140Z,99470.31
2023-04-25T18:21:45.976Z,99471.16
2023-04-25T18:24:50.969Z,99468.69
2023-04-25T18:27:53.528Z,99452.13
2023-04-25T18:30:56.789Z,99485.91
2023-04-25T18:33:59.603Z,99488.81
2023-04-25T18:37:02.373Z,99492.63
2023-04-25T18:40:07.195Z,99494.59
2023-04-25T18:43:09.949Z,99471.31
2023-04-25T18:46:13.674Z,99472.47
2023-04-25T18:49:16.393Z,99500.22
2023-04-25T18:52:19.689Z,99481.03
2023-04-25T18:55:22.324Z,99508.28
2023-04-25T18:58:25.273Z,99484.81
2023-04-25T19:01:28.115Z,99507.31
2023-04-25T19:04:31.048Z,99514.34
2023-04-25T19:07:33.795Z,99518.72
2023-04-25T19:10:39.116Z,99487.69
2023-04-25T19:13:41.906Z,99522.34
2023-04-25T19:16:44.832Z,99497.47
2023-04-25T19:19:47.808Z,99524.41
2023-04-25T19:22:51.754Z,99513.94
2023-04-25T19:25:54.398Z,99507.34
2023-04-25T19:29:07.195Z,99500.16
2023-04-25T19:32:10.051Z,99526.31
2023-04-25T19:35:13.477Z,99531.78
2023-04-25T19:38:16.586Z,99509.69
2023-04-25T19:41:19.399Z,99509.84
2023-04-25T19:44:22.233Z,99528.50
2023-04-25T19:47:27.656Z,99518.19
2023-04-25T19:50:30.917Z,99532.16
2023-04-25T19:53:33.654Z,99516.41
2023-04-25T19:56:36.392Z,99537.78
2023-04-25T19:59:39.299Z,99512.22
2023-04-25T20:02:45.279Z,99519.63
2023-04-25T20:05:48.787Z,99547.44
2023-04-25T20:08:55.235Z,99544.34
2023-04-25T20:11:57.745Z,99544.94
2023-04-25T20:15:00.866Z,99521.19
2023-04-25T20:18:04.580Z,99519.88
2023-04-25T20:21:08.535Z,99521.75
2023-04-25T20:24:11.963Z,99514.53
2023-04-25T20:27:14.382Z,99540.03
2023-04-25T20:30:16.871Z,99514.72
2023-04-25T20:33:19.297Z,99546.03
2023-04-25T20:36:21.986Z,99531.53
2023-04-25T20:39:25.031Z,99557.03
2023-04-25T20:42:27.687Z,99499.38
2023-04-25T20:45:32.226Z,99553.88
2023-04-25T20:48:35.718Z,99526.31
2023-04-25T20:51:38.397Z,99548.97
2023-04-25T20:54:41.613Z,99523.84
2023-04-25T20:57:43.995Z,99520.34
2023-04-25T21:00:47.726Z,99494.09
2023-04-25T21:03:53.172Z,99530.59
2023-04-25T21:06:55.740Z,99558.75
2023-04-25T21:09:58.237Z,99528.03
2023-04-25T21:13:00.846Z,99547.38
2023-04-25T21:16:03.723Z,99551.50
2023-04-25T21:19:06.823Z,99548.28
2023-04-25T21:22:09.287Z,99538.75
2023-04-25T21:25:11.718Z,99555.50
2023-04-25T21:28:14.191Z,99565.19
2023-04-25T21:31:16.716Z,99549.00
2023-04-25T21:34:19.253Z,99538.91
2023-04-25T21:37:21.725Z,99554.00
2023-04-25T21:40:24.946Z,99563.78
2023-04-25T21:43:27.289Z,99542.47
2023-04-25T21:46:29.759Z,99566.03
2023-04-25T21:49:33.119Z,99565.97
2023-04-25T21:52:36.150Z,99569.41
2023-04-25T21:55:38.697Z,99537.75
2023-04-25T21:58:41.107Z,99574.94
2023-04-25T22:01:45.436Z,99537.69
2023-04-25T22:04:48.410Z,99551.56
2023-04-25T22:07:51.938Z,99544.75
2023-04-25T22:10:55.294Z,99525.41
2023-04-25T22:13:57.921Z,99542.22
2023-04-25T22:17:01.268Z,99575.00
2023-04-25T22:20:09.754Z,99584.28
2023-04-25T22:23:13.779Z,99589.44
2023-04-25T22:26:16.210Z,99559.63
2023-04-25T22:29:18.748Z,99576.00
2023-04-25T22:32:21.163Z,99600.31
2023-04-25T22:35:23.906Z,99584.00
2023-04-25T22:38:26.532Z,99597.28
2023-04-25T22:41:29.016Z,99595.63
2023-04-25T22:44:31.518Z,99599.47
2023-04-25T22:47:37.796Z,99565.16
2023-04-25T22:50:40.871Z,99574.25
2023-04-25T22:53:45.275Z,99601.81
2023-04-25T22:56:47.692Z,99568.22
2023-04-25T22:59:54.205Z,99565.22
2023-04-25T23:02:57.138Z,99600.31
2023-04-25T23:06:00.279Z,99602.00
2023-04-25T23:09:02.977Z,99567.94
2023-04-25T23:12:05.834Z,99598.47
2023-04-25T23:15:09.390Z,99606.38
2023-04-25T23:18:11.906Z,99604.03
2023-04-25T23:21:14.523Z,99578.72
2023-04-25T23:24:16.915Z,99610.88
2023-04-25T23:27:19.241Z,99612.41
2023-04-25T23:30:21.869Z,99618.38
2023-04-25T23:33:24.298Z,99611.47
2023-04-25T23:36:28.106Z,99620.97
2023-04-25T23:39:30.962Z,99624.78
2023-04-25T23:42:33.531Z,99588.66
2023-04-25T23:45:36.464Z,99610.44
2023-04-25T23:48:38.881Z,99628.41
2023-04-25T23:51:41.394Z,99609.31
2023-04-25T23:54:43.746Z,99599.63
2023-04-25T23:57:46.292Z,99637.09
